KDHT

Dalhart Municipal Airport

Dalhart, Texas, USA
METAR KDHT 172353Z AUTO 07005KT 10SM BKN065 OVC090 14/02 A3045 RMK AO2 SLP288 T01440022 10161 20133 57001
Observed Flight Rules
Oct-17 @ 23:53 UTC (53 minutes ago) Visual Flight Rules
Wind Visibility Clouds
70° at 5 knots 10 miles
  • Broken at 6,500' AGL
  • Overcast at 9,000' AGL
Temperatures Readings
Current 14°C / 57°F
Dewpoint 2°C / 36°F
Humidity 44%
Altimeter 30.45" Hg
Pressure 1028.8 hPa
Elevation 1217
METAR KDHT 172353Z AUTO 07005KT 10SM BKN065 OVC090 14/02 A3045 RMK AO2 SLP288 T01440022 10161 20133 57001
Observed Flight Rules
Oct-17 @ 23:53 UTC
(53 minutes ago)
VFR
Wind Visibility
70° at 5 knots 10 miles
Clouds
  • Broken at 6,500' AGL
  • Overcast at 9,000' AGL
Temperature Dewpoint
14°C / 57°F 2°C / 36°F
Humidity Altimeter Pressure
44% 30.45" Hg 1028.8 hPa